createdAt,value
2022-09-14T00:04:55.569Z,3579
2022-09-14T00:14:55.580Z,3576
2022-09-14T00:24:55.529Z,3579
2022-09-14T00:34:55.534Z,3576
2022-09-14T00:44:55.520Z,3574
2022-09-14T00:54:55.464Z,3576
2022-09-14T01:04:55.449Z,3574
2022-09-14T01:14:55.460Z,3571
2022-09-14T01:24:55.416Z,3574
2022-09-14T01:34:55.373Z,3571
2022-09-14T01:44:55.358Z,3574
2022-09-14T01:54:55.371Z,3571
2022-09-14T02:04:55.309Z,3571
2022-09-14T02:14:55.298Z,3571
2022-09-14T02:24:55.275Z,3571
2022-09-14T02:34:55.253Z,3569
2022-09-14T02:44:55.240Z,3571
2022-09-14T02:54:55.234Z,3569
2022-09-14T03:04:55.190Z,3571
2022-09-14T03:14:55.178Z,3569
2022-09-14T03:24:55.144Z,3569
2022-09-14T03:34:55.158Z,3569
2022-09-14T03:44:55.096Z,3569
2022-09-14T03:54:55.119Z,3569
2022-09-14T04:04:55.091Z,3569
2022-09-14T04:14:55.037Z,3566
2022-09-14T04:24:55.034Z,3569
2022-09-14T04:34:55.021Z,3566
2022-09-14T04:44:54.981Z,3569
2022-09-14T04:54:54.993Z,3566
2022-09-14T05:04:54.935Z,3569
2022-09-14T05:14:54.932Z,3569
2022-09-14T05:24:54.910Z,3563
2022-09-14T05:34:54.898Z,3566
2022-09-14T05:44:54.844Z,3563
2022-09-14T05:54:54.871Z,3569
2022-09-14T06:04:54.850Z,3563
2022-09-14T06:14:54.823Z,3563
2022-09-14T06:24:54.767Z,3563
2022-09-14T06:34:54.747Z,3563
2022-09-14T06:44:54.766Z,3563
2022-09-14T06:54:54.738Z,3563
2022-09-14T07:04:54.686Z,3563
2022-09-14T07:14:54.693Z,3563
2022-09-14T07:24:54.661Z,3563
2022-09-14T07:34:54.631Z,3563
2022-09-14T07:44:54.637Z,3563
2022-09-14T07:54:54.617Z,3563
2022-09-14T08:04:54.569Z,3563
2022-09-14T08:14:54.572Z,3563
2022-09-14T08:24:54.533Z,3566
2022-09-14T08:34:54.507Z,3563
2022-09-14T08:44:54.516Z,3563
2022-09-14T08:54:54.500Z,3566
2022-09-14T09:04:54.440Z,3569
2022-09-14T09:14:54.453Z,3569
2022-09-14T09:24:54.399Z,3566
2022-09-14T09:34:54.378Z,3569
2022-09-14T09:44:58.008Z,3569
2022-09-14T09:54:54.368Z,3571
2022-09-14T10:04:54.317Z,3571
2022-09-14T10:24:54.279Z,3571
2022-09-14T10:34:54.253Z,3574
2022-09-14T10:44:54.258Z,3574
2022-09-14T10:54:54.510Z,3576
2022-09-14T11:04:54.186Z,3579
2022-09-14T11:14:54.206Z,3576
2022-09-14T11:24:54.141Z,3574
2022-09-14T11:34:54.127Z,3576
2022-09-14T11:44:54.140Z,3576
2022-09-14T11:54:54.086Z,3579
2022-09-14T12:04:54.057Z,3579
2022-09-14T12:14:54.073Z,3579
2022-09-14T12:24:54.017Z,3579
2022-09-14T12:34:54.000Z,3576
2022-09-14T12:44:54.003Z,3579
2022-09-14T12:54:53.952Z,3581
2022-09-14T13:04:53.922Z,3581
2022-09-14T13:14:53.931Z,3581
2022-09-14T13:24:53.881Z,3581
2022-09-14T13:34:53.860Z,3584
2022-09-14T13:44:53.874Z,3584
2022-09-14T13:54:53.815Z,3584
2022-09-14T14:04:53.796Z,3584
2022-09-14T14:14:53.805Z,3584
2022-09-14T14:25:12.693Z,3584
2022-09-14T14:34:53.733Z,3584
2022-09-14T14:44:53.790Z,3584
2022-09-14T14:54:53.691Z,3584
2022-09-14T15:04:53.660Z,3584
2022-09-14T15:14:53.688Z,3584
2022-09-14T15:24:53.672Z,3584
2022-09-14T15:34:53.611Z,3581
2022-09-14T15:44:53.569Z,3581
2022-09-14T15:54:53.583Z,3581
2022-09-14T16:04:53.525Z,3581
2022-09-14T16:14:53.512Z,3581
2022-09-14T16:24:53.515Z,3579
2022-09-14T16:34:53.463Z,3579
2022-09-14T16:44:53.439Z,3579
2022-09-14T16:54:56.172Z,3579
2022-09-14T17:04:53.403Z,3581
2022-09-14T17:14:53.369Z,3579
2022-09-14T17:24:53.382Z,3579
2022-09-14T17:34:53.359Z,3579
2022-09-14T17:44:53.310Z,3579
2022-09-14T17:54:53.327Z,3576
2022-09-14T18:04:53.268Z,3579
2022-09-14T18:14:53.246Z,3576
2022-09-14T18:24:53.270Z,3574
2022-09-14T18:34:53.199Z,3579
2022-09-14T18:44:53.183Z,3576
2022-09-14T19:04:53.167Z,3576
2022-09-14T19:14:53.131Z,3579
2022-09-14T19:24:53.131Z,3576
2022-09-14T19:34:53.080Z,3576
2022-09-14T19:44:53.062Z,3574
2022-09-14T19:54:53.067Z,3576
2022-09-14T20:04:53.017Z,3574
2022-09-14T20:14:53.025Z,3574
2022-09-14T20:24:53.006Z,3574
2022-09-14T20:34:52.946Z,3574
2022-09-14T20:44:52.954Z,3574
2022-09-14T20:54:52.940Z,3574
2022-09-14T21:04:52.880Z,3574
2022-09-14T21:14:52.888Z,3574
2022-09-14T21:24:52.865Z,3571
2022-09-14T21:34:52.813Z,3569
2022-09-14T21:44:52.829Z,3569
2022-09-14T21:54:52.801Z,3566
2022-09-14T22:04:52.753Z,3563
2022-09-14T22:14:52.768Z,3563
2022-09-14T22:24:52.764Z,3563
2022-09-14T22:34:52.695Z,3563
2022-09-14T22:44:52.713Z,3563
2022-09-14T22:54:52.694Z,3563
2022-09-14T23:04:52.634Z,3563
2022-09-14T23:14:52.654Z,3563
2022-09-14T23:24:52.628Z,3563
2022-09-14T23:34:52.572Z,3561
2022-09-14T23:44:52.595Z,3561
2022-09-14T23:54:52.564Z,3563
